Time;durP1;ratioP1;P1;durP2;ratioP2;P2;SDS_P1;SDS_P2;PMS_P1;PMS_P2;Temp;Humidity;BMP_temperature;BMP_pressure;BME280_temperature;BME280_humidity;BME280_pressure;Samples;Min_cycle;Max_cycle;Signal;HPM_P1;HPM_P2
2022/08/20 00:00:15;;;;;;;;;;;;;;;25.91;67.33;96507.77;198694;291;278394;-65
2022/08/20 00:01:16;;;;;;;;;;;;;;;25.86;67.55;96508.83;198577;293;197764;-66
2022/08/20 00:02:18;;;;;;;;;;;;;;;25.86;67.59;96503.42;198222;293;195433;-65
2022/08/20 00:03:19;;;;;;;;;;;;;;;25.88;67.59;96506.78;199410;292;98756;-66
2022/08/20 00:04:20;;;;;;;;;;;;;;;25.89;67.52;96499.52;199442;292;99201;-65
2022/08/20 00:05:22;;;;;;;;;;;;;;;25.78;67.72;96499.43;198964;293;98877;-65
2022/08/20 00:06:23;;;;;;;;;;;;;;;25.76;67.85;96498.77;198706;293;98918;-65
2022/08/20 00:07:24;;;;;;;;;;;;;;;25.76;67.92;96499.61;198463;294;99206;-67
2022/08/20 00:08:26;;;;;;;;;;;;;;;25.75;67.95;96498.44;198268;294;98869;-67
2022/08/20 00:09:27;;;;;;;;;;;;;;;25.76;67.91;96494.72;198178;294;97771;-67
2022/08/20 00:10:28;;;;;;;;;;;;;;;25.69;68.05;96499.20;198922;293;98732;-67
2022/08/20 00:11:32;;;;;;;;;;;;;;;25.67;68.10;96491.27;198558;293;191927;-66
2022/08/20 00:12:33;;;;;;;;;;;;;;;25.55;68.41;96495.37;198565;293;244665;-67
2022/08/20 00:13:34;;;;;;;;;;;;;;;25.52;68.54;96497.09;198415;293;197097;-67
2022/08/20 00:14:35;;;;;;;;;;;;;;;25.55;68.56;96491.33;199183;292;194743;-67
2022/08/20 00:15:37;;;;;;;;;;;;;;;25.54;68.63;96497.75;199171;292;99336;-67
2022/08/20 00:16:38;;;;;;;;;;;;;;;25.50;68.68;96499.64;199094;292;193769;-67
2022/08/20 00:17:40;;;;;;;;;;;;;;;25.58;68.54;96501.78;198417;293;280454;-67
2022/08/20 00:18:41;;;;;;;;;;;;;;;25.58;68.53;96496.88;199054;292;196834;-68
2022/08/20 00:19:43;;;;;;;;;;;;;;;25.50;68.61;96496.94;198590;293;195845;-67
2022/08/20 00:20:44;;;;;;;;;;;;;;;25.46;68.74;96500.55;198858;293;98704;-67
2022/08/20 00:21:45;;;;;;;;;;;;;;;25.44;68.81;96505.30;198591;293;190735;-67
2022/08/20 00:22:47;;;;;;;;;;;;;;;25.39;68.94;96499.58;198478;293;280348;-67
2022/08/20 00:23:48;;;;;;;;;;;;;;;25.40;68.96;96502.11;199372;292;197120;-67
2022/08/20 00:24:49;;;;;;;;;;;;;;;25.43;68.93;96497.69;198518;293;196257;-68
2022/08/20 00:25:51;;;;;;;;;;;;;;;25.40;68.91;96500.75;198756;293;98785;-67
2022/08/20 00:26:52;;;;;;;;;;;;;;;25.34;69.03;96500.12;198743;293;193206;-67
2022/08/20 00:27:53;;;;;;;;;;;;;;;25.35;69.14;96506.36;197569;294;278870;-67
2022/08/20 00:28:55;;;;;;;;;;;;;;;25.42;69.06;96505.47;198535;293;198775;-69
2022/08/20 00:29:56;;;;;;;;;;;;;;;25.41;69.01;96501.08;199057;292;195177;-68
2022/08/20 00:30:57;;;;;;;;;;;;;;;25.41;69.11;96505.14;199532;292;99027;-67
2022/08/20 00:31:59;;;;;;;;;;;;;;;25.48;68.98;96501.20;198666;292;194081;-67
2022/08/20 00:33:00;;;;;;;;;;;;;;;25.42;69.04;96501.41;198605;293;278530;-67
2022/08/20 00:34:01;;;;;;;;;;;;;;;25.37;69.11;96502.46;199042;292;196822;-67
2022/08/20 00:35:03;;;;;;;;;;;;;;;25.33;69.20;96501.14;198607;293;196114;-68
2022/08/20 00:36:10;;;;;;;;;;;;;;;25.34;69.22;96505.52;199264;292;98656;-67
2022/08/20 00:37:07;;;;;;;;;;;;;;;25.34;69.39;96508.23;198780;292;162845;-67
2022/08/20 00:38:09;;;;;;;;;;;;;;;25.33;69.40;96501.14;197934;293;277882;-67
2022/08/20 00:39:10;;;;;;;;;;;;;;;25.30;69.48;96504.20;198873;292;198356;-67
2022/08/20 00:40:11;;;;;;;;;;;;;;;25.33;69.49;96509.25;198790;292;194924;-67
2022/08/20 00:41:13;;;;;;;;;;;;;;;25.30;69.54;96509.60;198106;293;98796;-67
2022/08/20 00:42:14;;;;;;;;;;;;;;;25.30;69.54;96511.47;199108;292;191718;-67
2022/08/20 00:43:15;;;;;;;;;;;;;;;25.20;69.79;96511.72;198690;292;280704;-67
2022/08/20 00:44:17;;;;;;;;;;;;;;;25.19;69.85;96508.69;198066;293;199562;-67
2022/08/20 00:45:18;;;;;;;;;;;;;;;25.12;69.99;96505.52;198039;293;195903;-67
2022/08/20 00:46:20;;;;;;;;;;;;;;;25.16;69.99;96507.69;199095;292;97852;-67
2022/08/20 00:47:21;;;;;;;;;;;;;;;25.18;69.99;96508.36;199105;291;192548;-67
2022/08/20 00:48:22;;;;;;;;;;;;;;;25.23;69.83;96508.66;198789;291;279753;-67
2022/08/20 00:49:24;;;;;;;;;;;;;;;25.22;69.80;96498.88;198810;291;197644;-67
2022/08/20 00:51:00;;;;;;;;;;;;;;;25.26;69.71;96500.67;202063;287;71391;-67
2022/08/20 00:52:01;;;;;;;;;;;;;;;25.26;69.71;96505.58;200006;290;192357;-67
2022/08/20 00:53:03;;;;;;;;;;;;;;;25.24;69.85;96508.96;199815;291;279675;-67
2022/08/20 00:54:04;;;;;;;;;;;;;;;25.33;69.99;96507.89;198526;293;196776;-66
2022/08/20 00:55:05;;;;;;;;;;;;;;;25.34;70.03;96507.39;197008;294;197200;-67
2022/08/20 00:56:07;;;;;;;;;;;;;;;25.35;70.09;96511.77;198282;294;98877;-68
2022/08/20 00:57:08;;;;;;;;;;;;;;;25.42;70.02;96506.82;197737;294;190550;-69
2022/08/20 00:58:09;;;;;;;;;;;;;;;25.50;69.92;96515.87;197993;293;275074;-68
2022/08/20 00:59:11;;;;;;;;;;;;;;;25.53;69.85;96508.23;197271;294;197807;-69
2022/08/20 01:00:12;;;;;;;;;;;;;;;25.49;71.03;96514.22;197785;294;196149;-69
2022/08/20 01:01:14;;;;;;;;;;;;;;;25.58;70.51;96507.70;197946;293;99218;-68
2022/08/20 01:02:16;;;;;;;;;;;;;;;25.63;70.02;96510.73;197896;294;99202;-69
2022/08/20 01:03:19;;;;;;;;;;;;;;;25.71;69.88;96509.33;198093;294;98659;-68
2022/08/20 01:04:20;;;;;;;;;;;;;;;25.87;69.54;96515.08;197456;294;192078;-68
2022/08/20 01:05:22;;;;;;;;;;;;;;;26.02;69.19;96514.58;197073;295;278209;-68
2022/08/20 01:06:24;;;;;;;;;;;;;;;26.19;68.64;96512.56;196950;295;197838;-68
2022/08/20 01:07:33;;;;;;;;;;;;;;;26.33;68.12;96508.53;196943;295;198054;-68
2022/08/20 01:08:31;;;;;;;;;;;;;;;26.52;67.46;96516.59;197277;293;168077;-68
2022/08/20 01:09:32;;;;;;;;;;;;;;;26.61;66.84;96515.47;197963;294;196698;-69
2022/08/20 01:10:34;;;;;;;;;;;;;;;26.67;66.41;96518.79;197912;294;99048;-69
2022/08/20 01:11:35;;;;;;;;;;;;;;;26.71;66.42;96517.39;197763;294;193284;-68
2022/08/20 01:12:36;;;;;;;;;;;;;;;26.77;66.05;96521.19;198156;293;275193;-68
2022/08/20 01:13:38;;;;;;;;;;;;;;;26.85;65.69;96519.73;197223;294;196848;-68
2022/08/20 01:14:45;;;;;;;;;;;;;;;26.82;65.54;96516.05;197449;294;197516;-68
2022/08/20 01:15:46;;;;;;;;;;;;;;;26.80;65.57;96524.03;197809;293;197186;-68
2022/08/20 01:16:48;;;;;;;;;;;;;;;26.81;65.49;96521.66;197345;294;195275;-68
2022/08/20 01:17:49;;;;;;;;;;;;;;;26.73;65.45;96519.36;197652;294;98836;-68
2022/08/20 01:18:50;;;;;;;;;;;;;;;26.69;65.48;96522.66;197153;295;193458;-68
2022/08/20 01:19:52;;;;;;;;;;;;;;;26.65;65.60;96523.55;197121;295;276192;-68
2022/08/20 01:20:53;;;;;;;;;;;;;;;26.64;65.71;96525.94;197263;294;198154;-68
2022/08/20 01:21:57;;;;;;;;;;;;;;;26.54;65.85;96515.89;198199;294;197469;-68
2022/08/20 01:24:19;;;;;;;;;;;;;;;26.50;66.09;96520.52;198010;294;157772;-69
2022/08/20 01:25:21;;;;;;;;;;;;;;;26.49;66.16;96521.02;197933;294;98752;-68
2022/08/20 01:26:22;;;;;;;;;;;;;;;26.53;66.09;96520.14;197159;294;99298;-67
2022/08/20 01:27:23;;;;;;;;;;;;;;;26.42;66.26;96518.77;198154;293;97638;-68
2022/08/20 01:28:25;;;;;;;;;;;;;;;26.30;67.57;96517.53;197914;293;98660;-68
2022/08/20 01:29:26;;;;;;;;;;;;;;;26.25;67.39;96522.62;197853;294;98790;-69
2022/08/20 01:30:27;;;;;;;;;;;;;;;26.14;68.84;96520.39;197889;294;194893;-69
2022/08/20 01:31:29;;;;;;;;;;;;;;;26.16;68.26;96525.11;198145;293;195309;-68
2022/08/20 01:32:30;;;;;;;;;;;;;;;26.14;68.42;96513.62;197322;294;99255;-69
2022/08/20 01:33:31;;;;;;;;;;;;;;;26.04;69.62;96523.36;197484;295;191670;-68
2022/08/20 01:34:33;;;;;;;;;;;;;;;26.07;68.74;96517.06;198318;292;277441;-69
2022/08/20 01:35:34;;;;;;;;;;;;;;;26.13;68.16;96518.20;197418;295;197791;-69
2022/08/20 01:36:35;;;;;;;;;;;;;;;26.16;67.89;96514.28;196662;295;196269;-69
2022/08/20 01:37:37;;;;;;;;;;;;;;;26.18;67.78;96521.71;197625;295;97836;-68
2022/08/20 01:38:38;;;;;;;;;;;;;;;26.22;67.62;96518.45;197252;295;192451;-68
2022/08/20 01:39:39;;;;;;;;;;;;;;;26.31;67.53;96521.92;197303;295;278353;-69
2022/08/20 01:40:41;;;;;;;;;;;;;;;26.36;67.33;96517.63;197262;295;196763;-69
2022/08/20 01:41:42;;;;;;;;;;;;;;;26.32;67.13;96519.54;197926;294;196810;-68
2022/08/20 01:42:44;;;;;;;;;;;;;;;26.38;67.02;96517.45;197634;294;98800;-68
2022/08/20 01:43:45;;;;;;;;;;;;;;;26.37;66.89;96522.53;197754;294;100171;-69
2022/08/20 01:44:46;;;;;;;;;;;;;;;26.45;66.73;96520.26;197926;294;96783;-69
2022/08/20 01:45:48;;;;;;;;;;;;;;;26.43;66.63;96523.15;197343;295;97806;-69
2022/08/20 01:46:50;;;;;;;;;;;;;;;26.41;66.64;96525.20;197297;294;97859;-68
2022/08/20 01:47:51;;;;;;;;;;;;;;;26.46;67.63;96527.36;197441;295;98756;-68
2022/08/20 01:48:53;;;;;;;;;;;;;;;26.46;67.27;96528.20;197396;293;196131;-68
2022/08/20 01:49:54;;;;;;;;;;;;;;;26.42;67.54;96524.17;199062;293;98672;-68
2022/08/20 01:50:55;;;;;;;;;;;;;;;26.36;67.89;96527.63;198239;293;191784;-68
2022/08/20 01:51:57;;;;;;;;;;;;;;;26.33;67.91;96522.58;197499;293;279394;-68
2022/08/20 01:52:58;;;;;;;;;;;;;;;26.28;67.99;96527.16;197970;291;196809;-68
2022/08/20 01:53:59;;;;;;;;;;;;;;;26.27;67.62;96526.83;196988;294;197471;-68
2022/08/20 01:55:01;;;;;;;;;;;;;;;26.09;69.39;96528.55;197206;295;98757;-68
2022/08/20 01:56:02;;;;;;;;;;;;;;;26.16;68.49;96530.52;196446;296;191943;-68
2022/08/20 01:57:04;;;;;;;;;;;;;;;26.22;67.85;96530.63;196788;295;275916;-69
2022/08/20 01:58:05;;;;;;;;;;;;;;;26.23;67.57;96532.28;197584;294;200036;-68
2022/08/20 01:59:06;;;;;;;;;;;;;;;26.20;68.60;96537.25;197089;295;197023;-68
2022/08/20 02:00:08;;;;;;;;;;;;;;;26.24;68.07;96537.19;197311;295;97790;-68
2022/08/20 02:01:10;;;;;;;;;;;;;;;26.28;67.69;96535.80;198005;293;190795;-68
2022/08/20 02:02:11;;;;;;;;;;;;;;;26.32;67.37;96530.37;197975;294;276162;-67
2022/08/20 02:03:13;;;;;;;;;;;;;;;26.33;67.20;96534.25;197516;294;195540;-68
2022/08/20 02:04:15;;;;;;;;;;;;;;;26.34;67.08;96535.09;197236;295;194826;-68
2022/08/20 02:05:17;;;;;;;;;;;;;;;26.26;67.29;96531.08;197548;294;97436;-68
2022/08/20 02:06:18;;;;;;;;;;;;;;;26.27;67.33;96530.05;197816;294;98802;-68
2022/08/20 02:07:20;;;;;;;;;;;;;;;26.27;67.22;96528.70;196541;295;100159;-68
2022/08/20 02:08:21;;;;;;;;;;;;;;;26.33;67.06;96523.42;196907;294;98653;-68
2022/08/20 02:09:22;;;;;;;;;;;;;;;26.36;67.00;96527.11;196776;294;277359;-68
2022/08/20 02:10:24;;;;;;;;;;;;;;;26.42;66.81;96524.17;197490;294;196689;-68
2022/08/20 02:11:25;;;;;;;;;;;;;;;26.48;66.85;96528.81;197173;294;197103;-68
2022/08/20 02:12:26;;;;;;;;;;;;;;;26.48;66.72;96525.30;197931;293;98822;-68
2022/08/20 02:13:28;;;;;;;;;;;;;;;26.47;66.54;96519.05;197989;293;190493;-68
2022/08/20 02:14:29;;;;;;;;;;;;;;;26.45;66.50;96521.61;197180;294;280531;-68
2022/08/20 02:15:30;;;;;;;;;;;;;;;26.36;67.45;96522.21;197593;294;198154;-68
2022/08/20 02:16:32;;;;;;;;;;;;;;;26.38;67.07;96529.12;197745;294;193992;-68
2022/08/20 02:17:33;;;;;;;;;;;;;;;26.40;66.78;96520.81;198058;294;99182;-68
2022/08/20 02:18:34;;;;;;;;;;;;;;;26.38;66.68;96526.41;197156;295;193677;-68
2022/08/20 02:19:37;;;;;;;;;;;;;;;26.36;66.66;96524.41;197156;295;277735;-68
2022/08/20 02:20:38;;;;;;;;;;;;;;;26.35;66.78;96528.65;197673;294;198571;-68
2022/08/20 02:21:39;;;;;;;;;;;;;;;26.32;66.88;96537.14;197043;294;195388;-68
2022/08/20 02:22:41;;;;;;;;;;;;;;;26.33;66.89;96530.19;196978;294;98784;-68
2022/08/20 02:23:42;;;;;;;;;;;;;;;26.35;66.84;96534.06;197271;294;192830;-68
2022/08/20 02:24:43;;;;;;;;;;;;;;;26.30;67.09;96527.84;197695;294;276325;-68
2022/08/20 02:25:46;;;;;;;;;;;;;;;26.31;67.08;96532.75;197309;295;196852;-68
2022/08/20 02:26:47;;;;;;;;;;;;;;;26.31;66.96;96531.39;197500;293;195142;-68
2022/08/20 02:27:48;;;;;;;;;;;;;;;26.33;66.99;96538.31;198832;293;99145;-68
2022/08/20 02:28:50;;;;;;;;;;;;;;;26.32;67.15;96537.14;198405;293;191707;-68
2022/08/20 02:29:51;;;;;;;;;;;;;;;26.27;67.22;96538.17;198027;293;275810;-68
2022/08/20 02:30:54;;;;;;;;;;;;;;;26.29;67.18;96540.18;196963;294;196994;-68
2022/08/20 02:31:55;;;;;;;;;;;;;;;26.31;67.07;96536.81;197771;294;196983;-68
2022/08/20 02:32:56;;;;;;;;;;;;;;;26.36;67.02;96530.33;198016;294;98735;-68
2022/08/20 02:33:58;;;;;;;;;;;;;;;26.37;66.93;96533.36;197774;294;192519;-68
2022/08/20 02:35:01;;;;;;;;;;;;;;;26.36;66.86;96533.04;197156;294;279774;-68
2022/08/20 02:36:02;;;;;;;;;;;;;;;26.35;66.75;96531.36;197379;293;166188;-68
2022/08/20 02:37:03;;;;;;;;;;;;;;;26.31;66.76;96533.59;197118;294;195864;-68
2022/08/20 02:38:05;;;;;;;;;;;;;;;26.36;66.74;96535.23;197588;295;99237;-68
2022/08/20 02:39:06;;;;;;;;;;;;;;;26.31;66.80;96536.30;197936;293;191533;-67
2022/08/20 02:40:07;;;;;;;;;;;;;;;26.34;66.87;96539.15;197981;293;278365;-68
2022/08/20 02:41:09;;;;;;;;;;;;;;;26.36;66.80;96535.74;198248;293;198345;-68
2022/08/20 02:42:11;;;;;;;;;;;;;;;26.30;66.86;96533.77;197845;293;196122;-67
2022/08/20 02:43:13;;;;;;;;;;;;;;;26.27;66.97;96534.11;198253;294;97748;-67
2022/08/20 02:44:15;;;;;;;;;;;;;;;26.28;67.06;96530.38;197760;294;96884;-67
2022/08/20 02:45:17;;;;;;;;;;;;;;;26.27;67.09;96534.11;197058;295;98816;-68
2022/08/20 02:46:18;;;;;;;;;;;;;;;26.26;67.10;96532.42;197716;293;191516;-68
2022/08/20 02:47:19;;;;;;;;;;;;;;;26.31;67.12;96538.16;196832;294;279120;-67
2022/08/20 02:48:21;;;;;;;;;;;;;;;26.32;67.10;96531.72;197571;294;197045;-68
2022/08/20 02:49:23;;;;;;;;;;;;;;;26.33;67.19;96529.34;197454;294;195372;-68
2022/08/20 02:50:24;;;;;;;;;;;;;;;26.37;66.99;96530.66;197180;294;97733;-69
2022/08/20 02:51:26;;;;;;;;;;;;;;;26.49;66.70;96530.50;196188;295;190519;-70
2022/08/20 02:52:27;;;;;;;;;;;;;;;26.55;66.38;96528.41;197757;293;276723;-70
2022/08/20 02:53:28;;;;;;;;;;;;;;;26.50;66.33;96531.34;197316;294;197814;-68
2022/08/20 02:54:30;;;;;;;;;;;;;;;26.47;66.19;96529.88;197337;294;195969;-69
2022/08/20 02:55:31;;;;;;;;;;;;;;;26.53;66.27;96535.03;198091;294;96793;-68
2022/08/20 02:56:32;;;;;;;;;;;;;;;26.54;66.25;96533.49;197790;294;192466;-68
2022/08/20 02:57:34;;;;;;;;;;;;;;;26.57;66.11;96533.13;196704;295;277906;-68
2022/08/20 02:58:35;;;;;;;;;;;;;;;26.58;66.07;96529.39;197195;294;195628;-68
2022/08/20 02:59:37;;;;;;;;;;;;;;;26.68;65.72;96525.89;197291;293;194586;-68
2022/08/20 03:00:38;;;;;;;;;;;;;;;26.77;65.51;96534.22;196834;293;97760;-68
2022/08/20 03:01:40;;;;;;;;;;;;;;;26.71;65.63;96535.00;198473;293;98751;-68
2022/08/20 03:02:41;;;;;;;;;;;;;;;26.61;65.82;96531.72;197446;294;98785;-70
2022/08/20 03:03:43;;;;;;;;;;;;;;;26.65;65.89;96534.91;198380;293;97308;-70
2022/08/20 03:04:44;;;;;;;;;;;;;;;26.62;65.89;96537.98;197246;294;97659;-70
2022/08/20 03:05:45;;;;;;;;;;;;;;;26.69;65.80;96537.56;197239;294;99247;-68
2022/08/20 03:06:47;;;;;;;;;;;;;;;26.61;65.88;96539.84;197019;294;195320;-68
2022/08/20 03:07:48;;;;;;;;;;;;;;;26.53;66.03;96543.16;197528;295;97842;-68
2022/08/20 03:08:49;;;;;;;;;;;;;;;26.60;66.07;96538.17;197295;295;192651;-68
2022/08/20 03:09:51;;;;;;;;;;;;;;;26.62;66.03;96537.47;197788;294;279646;-68
2022/08/20 03:10:52;;;;;;;;;;;;;;;26.65;66.14;96538.45;196313;296;198606;-67
2022/08/20 03:11:53;;;;;;;;;;;;;;;26.55;66.25;96530.27;196888;294;194803;-66
2022/08/20 03:12:55;;;;;;;;;;;;;;;26.70;66.08;96534.67;197311;295;99953;-68
2022/08/20 03:13:56;;;;;;;;;;;;;;;26.65;66.09;96528.97;197359;295;191852;-70
2022/08/20 03:14:57;;;;;;;;;;;;;;;26.67;66.06;96528.27;196784;295;281180;-68
2022/08/20 03:15:59;;;;;;;;;;;;;;;26.75;66.07;96528.14;197439;295;199082;-68
2022/08/20 03:17:00;;;;;;;;;;;;;;;26.81;65.89;96532.48;196530;294;196876;-68
2022/08/20 03:18:01;;;;;;;;;;;;;;;26.89;65.66;96529.17;197354;294;97769;-68
2022/08/20 03:19:03;;;;;;;;;;;;;;;26.85;65.51;96529.73;196681;294;193237;-68
2022/08/20 03:20:04;;;;;;;;;;;;;;;26.82;65.43;96524.69;197621;293;280443;-68
2022/08/20 03:21:05;;;;;;;;;;;;;;;26.70;65.65;96529.25;197829;293;197217;-68
2022/08/20 03:22:07;;;;;;;;;;;;;;;26.71;65.85;96527.38;197360;293;195724;-68
2022/08/20 03:23:08;;;;;;;;;;;;;;;26.66;65.87;96536.07;197108;294;98775;-68
2022/08/20 03:24:09;;;;;;;;;;;;;;;27.06;65.15;96533.87;196865;295;192521;-68
2022/08/20 03:25:11;;;;;;;;;;;;;;;27.23;64.44;96528.53;196795;295;276976;-67
2022/08/20 03:26:12;;;;;;;;;;;;;;;27.31;64.11;96534.36;198149;293;197721;-68
2022/08/20 03:27:13;;;;;;;;;;;;;;;27.33;63.97;96532.30;197265;293;195259;-67
2022/08/20 03:28:15;;;;;;;;;;;;;;;27.33;63.98;96537.20;197188;295;97766;-68
2022/08/20 03:29:16;;;;;;;;;;;;;;;27.25;65.22;96535.95;197201;295;192491;-67
2022/08/20 03:30:18;;;;;;;;;;;;;;;27.26;64.83;96543.06;197392;295;278881;-67
2022/08/20 03:31:19;;;;;;;;;;;;;;;27.26;64.61;96544.41;197304;295;197809;-66
2022/08/20 03:32:21;;;;;;;;;;;;;;;27.32;64.79;96538.75;197440;293;195047;-66
2022/08/20 03:33:22;;;;;;;;;;;;;;;27.46;64.40;96538.39;197319;295;98769;-66
2022/08/20 03:34:24;;;;;;;;;;;;;;;27.59;63.83;96535.83;197331;293;99471;-66
2022/08/20 03:35:25;;;;;;;;;;;;;;;27.64;63.33;96542.35;197494;294;96563;-66
2022/08/20 03:36:26;;;;;;;;;;;;;;;27.60;63.28;96541.58;197748;293;97639;-66
2022/08/20 03:37:28;;;;;;;;;;;;;;;27.63;63.07;96537.12;197607;293;98788;-66
2022/08/20 03:38:29;;;;;;;;;;;;;;;27.60;63.04;96541.58;197893;294;98765;-66
2022/08/20 03:39:31;;;;;;;;;;;;;;;27.59;62.96;96536.66;197931;293;196074;-66
2022/08/20 03:40:32;;;;;;;;;;;;;;;27.58;62.93;96540.92;197784;294;97766;-66
2022/08/20 03:41:33;;;;;;;;;;;;;;;27.55;62.95;96539.92;197864;293;193106;-66
2022/08/20 03:42:35;;;;;;;;;;;;;;;27.51;63.01;96531.84;198261;292;277368;-66
2022/08/20 03:43:36;;;;;;;;;;;;;;;27.47;63.07;96536.00;197518;294;196795;-66
2022/08/20 03:44:38;;;;;;;;;;;;;;;27.46;63.01;96532.45;197742;294;194924;-66
2022/08/20 03:45:39;;;;;;;;;;;;;;;27.42;63.10;96536.06;197329;295;99218;-66
2022/08/20 03:46:40;;;;;;;;;;;;;;;27.35;63.30;96537.85;197028;294;192880;-66
2022/08/20 03:47:42;;;;;;;;;;;;;;;27.35;63.38;96540.56;197614;293;278260;-66
2022/08/20 03:48:43;;;;;;;;;;;;;;;27.28;63.48;96545.06;197053;293;197006;-66
2022/08/20 03:49:45;;;;;;;;;;;;;;;27.22;63.52;96543.11;197647;294;195777;-66
2022/08/20 03:50:46;;;;;;;;;;;;;;;27.16;63.65;96547.97;197754;294;98751;-66
2022/08/20 03:51:47;;;;;;;;;;;;;;;27.12;63.80;96547.18;197404;294;98854;-66
2022/08/20 03:52:49;;;;;;;;;;;;;;;27.08;63.82;96552.14;197725;294;99010;-66
2022/08/20 03:53:50;;;;;;;;;;;;;;;27.05;63.95;96552.00;197544;294;100158;-66
2022/08/20 03:54:52;;;;;;;;;;;;;;;27.03;63.97;96547.80;197234;295;98654;-66
2022/08/20 03:55:53;;;;;;;;;;;;;;;26.99;64.11;96554.11;196949;295;98785;-66
2022/08/20 03:56:55;;;;;;;;;;;;;;;26.94;64.23;96559.25;196942;294;196918;-66
2022/08/20 03:57:56;;;;;;;;;;;;;;;26.90;64.32;96552.53;197711;293;98776;-66
2022/08/20 03:58:57;;;;;;;;;;;;;;;26.86;64.42;96561.22;196942;294;98855;-65
2022/08/20 03:59:59;;;;;;;;;;;;;;;26.85;64.48;96563.59;197220;294;98804;-66
2022/08/20 04:01:00;;;;;;;;;;;;;;;26.83;64.55;96564.30;197612;293;98769;-66
2022/08/20 04:02:02;;;;;;;;;;;;;;;26.73;64.67;96558.64;198051;294;98652;-66
2022/08/20 04:03:03;;;;;;;;;;;;;;;26.68;64.84;96562.45;197163;295;97768;-66
2022/08/20 04:04:04;;;;;;;;;;;;;;;26.64;64.99;96562.50;196869;295;194261;-66
2022/08/20 04:05:06;;;;;;;;;;;;;;;26.64;65.02;96565.20;197759;293;98756;-66
2022/08/20 04:06:07;;;;;;;;;;;;;;;26.62;65.05;96565.91;198151;293;193883;-66
2022/08/20 04:07:09;;;;;;;;;;;;;;;26.62;65.10;96561.84;197679;294;276552;-66
2022/08/20 04:08:10;;;;;;;;;;;;;;;26.60;65.13;96563.05;198372;293;198464;-66
2022/08/20 04:09:11;;;;;;;;;;;;;;;26.55;65.21;96568.19;198418;293;195117;-66
2022/08/20 04:10:13;;;;;;;;;;;;;;;26.52;65.32;96565.84;198044;294;98736;-66
2022/08/20 04:11:14;;;;;;;;;;;;;;;26.51;65.34;96565.52;197777;294;192013;-66
2022/08/20 04:12:16;;;;;;;;;;;;;;;26.43;65.40;96562.41;196628;296;276394;-65
2022/08/20 04:13:18;;;;;;;;;;;;;;;26.33;65.72;96576.72;197350;295;196868;-66
2022/08/20 04:14:19;;;;;;;;;;;;;;;26.36;65.76;96568.23;197110;295;196865;-66
2022/08/20 04:15:23;;;;;;;;;;;;;;;26.37;65.74;96571.27;197362;294;99257;-66
2022/08/20 04:16:23;;;;;;;;;;;;;;;26.36;65.74;96569.08;197782;293;163623;-65
2022/08/20 04:17:26;;;;;;;;;;;;;;;26.35;65.77;96567.91;198000;294;279072;-66
2022/08/20 04:18:27;;;;;;;;;;;;;;;26.32;65.82;96575.88;197346;294;198935;-65
2022/08/20 04:19:28;;;;;;;;;;;;;;;26.26;65.94;96568.97;197250;294;195426;-65
2022/08/20 04:20:30;;;;;;;;;;;;;;;26.21;66.07;96570.06;197706;294;97359;-65
2022/08/20 04:21:31;;;;;;;;;;;;;;;26.17;66.22;96571.45;197498;294;192317;-67
2022/08/20 04:22:32;;;;;;;;;;;;;;;26.16;66.24;96577.89;197566;294;280734;-67
2022/08/20 04:23:34;;;;;;;;;;;;;;;26.10;66.33;96573.53;196986;295;197877;-67
2022/08/20 04:24:36;;;;;;;;;;;;;;;26.12;66.36;96575.21;198534;293;197886;-67
2022/08/20 04:25:39;;;;;;;;;;;;;;;26.06;66.43;96569.50;198626;293;98777;-65
2022/08/20 04:26:40;;;;;;;;;;;;;;;26.04;66.54;96577.47;198098;293;69440;-66
2022/08/20 04:27:41;;;;;;;;;;;;;;;26.00;66.65;96573.45;197011;295;97772;-65
2022/08/20 04:28:43;;;;;;;;;;;;;;;25.94;66.80;96575.05;196630;295;192474;-65
2022/08/20 04:29:44;;;;;;;;;;;;;;;25.97;66.81;96582.80;197544;294;277517;-67
2022/08/20 04:30:45;;;;;;;;;;;;;;;25.89;66.94;96584.22;197341;295;198415;-65
2022/08/20 04:31:47;;;;;;;;;;;;;;;25.93;66.94;96581.48;198008;294;195032;-66
2022/08/20 04:32:48;;;;;;;;;;;;;;;25.88;67.01;96578.98;197639;295;98763;-66
2022/08/20 04:33:50;;;;;;;;;;;;;;;25.87;67.08;96588.13;197416;295;192560;-66
2022/08/20 04:34:52;;;;;;;;;;;;;;;25.83;67.25;96588.99;197377;295;278906;-65
2022/08/20 04:35:53;;;;;;;;;;;;;;;25.88;67.18;96586.59;197675;294;199238;-66
2022/08/20 04:36:55;;;;;;;;;;;;;;;25.95;67.07;96587.55;197418;295;196639;-66
2022/08/20 04:37:56;;;;;;;;;;;;;;;25.93;67.17;96587.40;197659;295;97741;-66
2022/08/20 04:38:57;;;;;;;;;;;;;;;25.88;67.30;96593.86;197359;293;193931;-66
2022/08/20 04:41:18;;;;;;;;;;;;;;;25.89;67.24;96588.27;197482;293;159457;-66
2022/08/20 04:42:19;;;;;;;;;;;;;;;25.90;67.18;96581.84;197852;293;194020;-66
2022/08/20 04:43:22;;;;;;;;;;;;;;;25.90;67.22;96587.76;197655;295;97724;-65
2022/08/20 04:44:23;;;;;;;;;;;;;;;25.89;67.19;96577.96;197663;294;192599;-66
2022/08/20 04:45:24;;;;;;;;;;;;;;;25.88;67.20;96585.75;198091;293;279213;-66
2022/08/20 04:46:27;;;;;;;;;;;;;;;25.85;67.19;96580.70;198042;293;197039;-66
2022/08/20 04:47:28;;;;;;;;;;;;;;;25.83;67.24;96587.64;196578;296;196144;-66
2022/08/20 04:48:29;;;;;;;;;;;;;;;25.80;67.37;96585.30;198401;293;98748;-66
2022/08/20 04:49:31;;;;;;;;;;;;;;;25.80;67.39;96590.70;198567;293;191520;-66
2022/08/20 04:50:35;;;;;;;;;;;;;;;25.80;67.37;96591.22;197661;294;280614;-66
2022/08/20 04:51:37;;;;;;;;;;;;;;;25.81;67.35;96595.09;198059;293;197680;-66
2022/08/20 04:52:39;;;;;;;;;;;;;;;25.79;67.30;96595.78;198081;293;195885;-65
2022/08/20 04:53:40;;;;;;;;;;;;;;;25.77;67.34;96599.17;198130;294;98776;-66
2022/08/20 04:54:42;;;;;;;;;;;;;;;25.76;67.38;96597.49;197799;294;191569;-65
2022/08/20 04:55:44;;;;;;;;;;;;;;;25.75;67.42;96596.65;197665;294;276543;-66
2022/08/20 04:56:47;;;;;;;;;;;;;;;25.74;67.41;96600.38;197895;293;196492;-65
2022/08/20 04:57:48;;;;;;;;;;;;;;;25.65;67.56;96598.77;198445;293;195395;-66
2022/08/20 04:58:50;;;;;;;;;;;;;;;25.66;67.68;96600.45;198162;293;97808;-66
2022/08/20 04:59:51;;;;;;;;;;;;;;;25.67;67.66;96598.08;197773;294;192926;-66
2022/08/20 05:00:53;;;;;;;;;;;;;;;25.60;67.79;96604.35;197690;294;278505;-65
2022/08/20 05:01:54;;;;;;;;;;;;;;;25.56;67.91;96605.73;197816;294;197561;-66
2022/08/20 05:02:55;;;;;;;;;;;;;;;25.51;68.06;96604.91;197778;294;196368;-65
2022/08/20 05:03:56;;;;;;;;;;;;;;;25.48;68.15;96600.40;198123;294;97887;-66
2022/08/20 05:04:58;;;;;;;;;;;;;;;25.43;68.28;96603.12;198289;293;192486;-66
2022/08/20 05:06:00;;;;;;;;;;;;;;;25.40;68.36;96604.83;197911;293;280132;-66
2022/08/20 05:07:01;;;;;;;;;;;;;;;25.34;68.54;96609.59;197583;293;198160;-66
2022/08/20 05:08:46;;;;;;;;;;;;;;;25.46;68.46;96607.33;202445;286;72440;-67
2022/08/20 05:09:47;;;;;;;;;;;;;;;25.50;68.54;96607.28;198688;292;192441;-67
2022/08/20 05:10:48;;;;;;;;;;;;;;;25.58;68.57;96603.69;198208;293;280489;-66
2022/08/20 05:11:50;;;;;;;;;;;;;;;25.63;68.70;96609.44;197697;293;197965;-67
2022/08/20 05:12:51;;;;;;;;;;;;;;;25.67;68.78;96606.20;198418;292;195295;-67
2022/08/20 05:13:52;;;;;;;;;;;;;;;25.76;68.76;96602.91;199681;291;98688;-67
2022/08/20 05:14:57;;;;;;;;;;;;;;;25.81;68.70;96602.36;199696;291;200162;-66
2022/08/20 05:16:00;;;;;;;;;;;;;;;25.87;68.54;96603.00;198845;291;248148;-67
2022/08/20 05:17:00;;;;;;;;;;;;;;;25.96;68.37;96604.11;198547;292;166718;-67
2022/08/20 05:18:03;;;;;;;;;;;;;;;26.03;68.34;96607.75;197769;292;194965;-66
2022/08/20 05:19:04;;;;;;;;;;;;;;;26.07;68.47;96605.02;198340;293;70350;-67
2022/08/20 05:20:06;;;;;;;;;;;;;;;26.15;68.12;96605.97;198353;293;98555;-66
2022/08/20 05:21:07;;;;;;;;;;;;;;;26.25;67.78;96609.24;198423;293;97729;-67